Terminal Aerodrome Forecast
Issued by NWS Louisville, KY

Home | Current Version | Previous Version | Text Only | Print | Product List | Glossary On
Versions: 1 2 3 4 5 6 7 8 9 10 11 12 13 14 15 16 17 18 19 20 21 22 23 24
000
FTUS43 KLMK 290500
TAFSDF
TAF
KSDF 290523Z 2906/3012 16006KT P6SM BKN080 BKN120
     FM290745 20005KT P6SM -SHRA SCT040 BKN060
     FM291200 19011KT P6SM BKN035
     FM291800 24013G22KT P6SM VCTS BKN040CB BKN250
     FM300100 21007KT P6SM SCT040=

USA.gov is the U.S. government's official web portal to all federal, state and local government web resources and services.